»·PEaware :: SWA808 KSAN-KLAS

SWA808 :: KSAN-KLAS

FLIGHT INFORMATION

Flight Status: Arrived
Operator:
Southwest Airlines
More flights by this operator :: More flights under this callsign
Pilot: Merv A. (1555)
Aircraft: BOEING 737-700
(B737)
More flights by this aircraft type
Origin: KSAN San Diego Intl-Lindbergh
United States
Destination: KLAS McCarran Intl
United States
More flights between these airports :: More routes between these airports
Route: +PADRZ2 CHKNN SEBBY YELAH MISEN KEPEC6
File this flight plan on PilotEdge
Remarks:
Altitude:
(Current/Filed)
29,000ft
Speed:
(Current/Filed)
450kts
Departed: 09-Oct-18 05:14 PM
Arrived: 09-Oct-18 06:12 PM
Distance/Time
Traveled:
225nm/0:57
Distance/Time
To Go:
Arrived

Flight Plot

Page will automatically refresh every two minutes.

Flight plan parsing failed; only flown route is shown


Map Options




Map Legend


Flown Route
Filed Route
Departure Airport
Arrival Airport
Navaid (VOR, NDB)
Fix

Horizontal Profiles

Position Reports

Time Latitude Longitude Heading Altitude Ground
Speed
09-Oct-18 16:41 32.732518 -117.195483 312 23ft 0kts
09-Oct-18 16:42 32.732518 -117.195483 312 22ft 0kts
09-Oct-18 16:43 32.732518 -117.195483 312 22ft 0kts
09-Oct-18 16:44 32.732518 -117.195483 312 22ft 0kts
09-Oct-18 16:45 32.732518 -117.195483 312 22ft 0kts
09-Oct-18 16:46 32.732518 -117.195483 312 22ft 0kts
09-Oct-18 16:47 32.732518 -117.195483 312 22ft 0kts
09-Oct-18 16:48 32.732518 -117.195483 312 22ft 0kts
09-Oct-18 16:49 32.732518 -117.195483 312 22ft 0kts
09-Oct-18 16:50 32.732518 -117.195483 312 22ft 0kts
09-Oct-18 16:51 32.732518 -117.195483 312 22ft 0kts
09-Oct-18 16:52 32.732518 -117.195483 312 22ft 0kts
09-Oct-18 16:53 32.732518 -117.195483 312 22ft 0kts
09-Oct-18 16:54 32.732518 -117.195483 312 22ft 0kts
09-Oct-18 16:55 32.732518 -117.195483 312 22ft 0kts
09-Oct-18 16:56 32.732518 -117.195483 312 22ft 0kts
09-Oct-18 16:57 32.732518 -117.195483 312 22ft 0kts
09-Oct-18 16:58 32.732518 -117.195483 312 22ft 0kts
09-Oct-18 16:59 32.732518 -117.195483 312 22ft 0kts
09-Oct-18 17:00 32.732518 -117.195483 312 22ft 0kts
09-Oct-18 17:01 32.732518 -117.195483 312 22ft 0kts
09-Oct-18 17:02 32.732518 -117.195483 312 22ft 0kts
09-Oct-18 17:03 32.732518 -117.195483 312 22ft 0kts
09-Oct-18 17:04 32.732518 -117.195483 312 22ft 0kts
09-Oct-18 17:05 32.732518 -117.195483 312 22ft 0kts
09-Oct-18 17:06 32.732292 -117.195148 306 22ft 2kts
09-Oct-18 17:07 32.731950 -117.195032 28 22ft 0kts
09-Oct-18 17:08 32.731950 -117.195032 28 22ft 0kts
09-Oct-18 17:09 32.731951 -117.195032 28 22ft 0kts
09-Oct-18 17:10 32.733337 -117.193986 65 22ft 12kts
09-Oct-18 17:11 32.732308 -117.188710 107 22ft 18kts
09-Oct-18 17:12 32.730841 -117.182713 106 22ft 18kts
09-Oct-18 17:13 32.729662 -117.177857 105 22ft 9kts
09-Oct-18 17:14 32.729539 -117.176754 73 22ft 0kts
09-Oct-18 17:15 32.730255 -117.176075 291 22ft 3kts
09-Oct-18 17:16 32.735754 -117.198597 286 454ft 151kts
09-Oct-18 17:17 32.756937 -117.243851 302 2833ft 185kts
09-Oct-18 17:18 32.792056 -117.305499 302 4404ft 248kts
09-Oct-18 17:19 32.838891 -117.375747 309 7428ft 281kts
09-Oct-18 17:20 32.891624 -117.447563 310 10837ft 296kts
09-Oct-18 17:21 32.950439 -117.527959 311 13408ft 333kts
09-Oct-18 17:22 33.001923 -117.598125 311 14961ft 339kts
09-Oct-18 17:23 33.074252 -117.697009 310 17973ft 343kts
09-Oct-18 17:24 33.137892 -117.784699 310 20768ft 356kts
09-Oct-18 17:25 33.206237 -117.874005 318 22856ft 371kts
09-Oct-18 17:26 33.285742 -117.951755 320 22888ft 368kts
09-Oct-18 17:27 33.352602 -118.016812 320 23997ft 374kts
09-Oct-18 17:28 33.434560 -118.096969 319 26176ft 386kts
09-Oct-18 17:29 33.518675 -118.179742 319 28140ft 396kts
09-Oct-18 17:30 33.611277 -118.255204 337 28872ft 413kts
09-Oct-18 17:31 33.722058 -118.226983 31 28881ft 441kts
09-Oct-18 17:32 33.806526 -118.126409 42 28870ft 448kts
09-Oct-18 17:33 33.891085 -118.016296 42 28862ft 448kts
09-Oct-18 17:34 33.975730 -117.905664 42 28866ft 448kts
09-Oct-18 17:35 34.073853 -117.775756 42 28878ft 448kts
09-Oct-18 17:36 34.143816 -117.683332 42 28879ft 448kts
09-Oct-18 17:37 34.227818 -117.572386 42 28871ft 448kts
09-Oct-18 17:38 34.311821 -117.460765 42 28858ft 448kts
09-Oct-18 17:39 34.395592 -117.349391 42 28851ft 448kts
09-Oct-18 17:40 34.479454 -117.237552 42 28848ft 448kts
09-Oct-18 17:41 34.577433 -117.106327 42 28871ft 448kts
09-Oct-18 17:42 34.646752 -117.013090 42 28862ft 447kts
09-Oct-18 17:43 34.745873 -116.884297 40 27788ft 441kts
09-Oct-18 17:44 34.814988 -116.796061 40 26310ft 425kts
09-Oct-18 17:45 34.895076 -116.693417 40 24784ft 414kts
09-Oct-18 17:46 34.973579 -116.593147 40 23804ft 407kts
09-Oct-18 17:47 35.051426 -116.493178 40 23378ft 401kts
09-Oct-18 17:48 35.127425 -116.395191 40 21586ft 396kts
09-Oct-18 17:49 35.201601 -116.299265 40 19775ft 378kts
09-Oct-18 17:50 35.272020 -116.207925 40 18421ft 360kts
09-Oct-18 17:51 35.340097 -116.119373 40 17204ft 355kts
09-Oct-18 17:52 35.406771 -116.032450 41 16197ft 345kts
09-Oct-18 17:53 35.472595 -115.946538 41 15252ft 346kts
09-Oct-18 17:54 35.537786 -115.861359 42 14354ft 338kts
09-Oct-18 17:55 35.600014 -115.779420 42 13318ft 327kts
09-Oct-18 17:56 35.659867 -115.700651 43 13051ft 311kts
09-Oct-18 17:57 35.720042 -115.623208 42 13050ft 313kts
09-Oct-18 17:58 35.791543 -115.574189 2 13050ft 294kts
09-Oct-18 17:59 35.870090 -115.569095 358 13041ft 272kts
09-Oct-18 18:00 35.946251 -115.564872 1 13043ft 275kts
09-Oct-18 18:01 35.995985 -115.494052 70 12283ft 302kts
09-Oct-18 18:02 36.023550 -115.399413 67 11270ft 288kts
09-Oct-18 18:03 36.026380 -115.302094 97 10164ft 282kts
09-Oct-18 18:04 36.018963 -115.207888 97 9066ft 267kts
09-Oct-18 18:05 36.012998 -115.120414 98 8355ft 245kts
09-Oct-18 18:06 36.008055 -115.040554 95 8004ft 227kts
09-Oct-18 18:07 36.010342 -114.963871 90 7271ft 222kts
09-Oct-18 18:08 36.029937 -114.895845 20 5736ft 225kts
09-Oct-18 18:09 36.083616 -114.909406 297 4981ft 191kts
09-Oct-18 18:10 36.078254 -114.966675 252 4886ft 161kts
09-Oct-18 18:11 36.074407 -115.018242 267 4124ft 148kts
09-Oct-18 18:12 36.074050 -115.067084 265 3108ft 140kts
09-Oct-18 18:13 36.073656 -115.123534 266 2263ft 142kts
09-Oct-18 18:14 36.073628 -115.147762 286 2189ft 29kts
09-Oct-18 18:15 36.074656 -115.150428 300 2189ft 0kts
09-Oct-18 18:16 36.074689 -115.150499 300 2189ft 2kts
09-Oct-18 18:17 36.076332 -115.151929 333 2189ft 14kts
09-Oct-18 18:18 36.077962 -115.149970 94 2189ft 14kts
09-Oct-18 18:19 36.078958 -115.147341 328 2189ft 7kts
09-Oct-18 18:20 36.080091 -115.147591 52 2189ft 4kts
09-Oct-18 18:21 36.080232 -115.147354 54 2189ft 0kts
09-Oct-18 18:22 36.080232 -115.147354 54 2189ft 0kts
09-Oct-18 18:23 36.080232 -115.147354 54 2189ft 0kts
09-Oct-18 18:24 36.080232 -115.147354 54 2189ft 0kts
09-Oct-18 18:25 36.080232 -115.147354 54 2189ft 0kts
09-Oct-18 18:26 36.080232 -115.147354 54 2189ft 0kts

Navigation Log

Ident Type
Flight plan parsing failed, navigation log unavailable